Terminal Aerodrome Forecast
Issued by NWS Twin Cities, MN

Home | Current Version | Previous Version | Graphics & Text | Print | Product List | Glossary On
Versions: 1 2 3 4 5 6 7 8 9 10 11 12 13 14 15 16 17 18 19 20 21 22 23 24 25 26 27
094
FTUS43 KMPX 222055 AAA
TAFMSP
TAF AMD
KMSP 222055Z 2221/2324 32010KT P6SM VCSH SCT045 SCT100 BKN250
     FM230100 32005KT P6SM FEW250
     FM231400 31010KT P6SM SCT025 BKN040=

USA.gov is the U.S. government's official web portal to all federal, state and local government web resources and services.